Briefing drone pour Saint-just-malmont

Rechercher une autre localisation

Conditions de vol :


Nous sommes le : Mercredi 30 novembre 2022
Il est 22:04 UTC (23:04 LT)

Lever de soleil : 06:34 UTC (07:34 LT)
Coucher de soleil : 16:28 UTC (17:28 LT)

Météo

L'essentiel des conditions de vol

VIGILANCE MÉTÉO FRANCE - Haute-Loire (43)
Pas de vigilances particulieres
METAR de LFMH
LFMH 302200Z AUTO 36006KT 7000 OVC007 05/04 Q1019

Date d'émission: 30/11/2022
Heure d'émission: 22:00 UTC
Vent: 360° pour 6 KT (11 km/h)
Visibilité horizontale: 7000 m
Plafond :
- Couvert à 700ft (213m)
Température: 5 °C
Point de rosée: 4 °C
Humidité: 93%
Pression (QNH): 1019 hPa
TAF de LFMH
LFMH 161901Z 1619/1712 CNL

Conditions prévues :

Heure d'émission : Bulletin éffectué le 16 à 19:00 UTC
Prévision : Valide du 16 a 19:00 UTC au 17 a 12:00 UTC
Nuages : à 0ft (0 m)
WEBCAM POUR SAINT-JUST-MALMONT

Réglementation

Voler en sécurité

CARTES AERONAUTIQUE 1/500.000
CARTE AZBA (Reseau basse altitude)
CARTES VAC (LFMH)
SUP AIP




Chargement des AIP...
NOTAM (SAINT-JUST-MALMONT + Terrain à proximité / FIR )




Chargement des NOTAMS...
CONTACT PREFECTURE 43


Avertissement : Les données mises à disposition sont indicatives. Oxygène Drone ne pourra être tenu responsable de dégâts causés aux biens et aux personnes.